createdAt,value
2022-10-06T10:12:25.576Z,20.50
2022-10-06T10:15:05.340Z,20.62
2022-10-06T10:17:39.258Z,21.17
2022-10-06T10:20:24.310Z,21.48
2022-10-06T10:22:53.102Z,21.77
2022-10-06T10:25:47.523Z,22.04
2022-10-06T10:28:42.102Z,22.06
2022-10-06T10:32:03.765Z,21.73
2022-10-06T10:35:16.143Z,22.13
2022-10-06T10:37:55.699Z,22.63
2022-10-06T10:40:51.315Z,22.51
2022-10-06T10:43:33.133Z,22.95
2022-10-06T10:46:21.852Z,23.20
2022-10-06T10:49:26.122Z,23.16
2022-10-06T10:52:20.428Z,22.43
2022-10-06T10:55:36.008Z,22.02
2022-10-06T10:58:25.032Z,21.38
2022-10-06T11:00:58.092Z,22.39
2022-10-06T11:04:10.930Z,23.14
2022-10-06T11:06:52.331Z,23.64
2022-10-06T11:09:30.801Z,23.96
2022-10-06T11:12:22.332Z,24.33
2022-10-06T11:15:36.743Z,24.07
2022-10-06T11:18:46.527Z,24.48
2022-10-06T11:21:41.659Z,24.93
2022-10-06T11:24:43.541Z,24.50
2022-10-06T11:27:25.947Z,24.60
2022-10-06T11:30:05.860Z,24.52
2022-10-06T11:32:44.960Z,25.14
2022-10-06T11:35:26.350Z,25.47
2022-10-06T11:38:12.874Z,25.71
2022-10-06T11:41:10.004Z,25.83
2022-10-06T11:44:32.149Z,26.27
2022-10-06T11:47:10.222Z,26.87
2022-10-06T11:49:52.583Z,27.43
2022-10-06T11:52:29.986Z,27.92
2022-10-06T11:55:29.422Z,28.06
2022-10-06T11:58:37.889Z,28.03
2022-10-06T12:01:21.792Z,26.49
2022-10-06T12:04:11.495Z,26.61
2022-10-06T12:06:41.324Z,27.29
2022-10-06T12:09:25.630Z,27.75
2022-10-06T12:11:59.889Z,27.77
2022-10-06T12:16:55.280Z,27.70
2022-10-06T12:17:54.854Z,27.83
2022-10-06T12:20:54.047Z,27.49
2022-10-06T12:23:46.793Z,27.86
2022-10-06T12:26:50.381Z,27.66
2022-10-06T12:29:41.013Z,27.25
2022-10-06T12:32:18.444Z,26.69
2022-10-06T12:35:03.893Z,27.02
2022-10-06T12:37:53.094Z,27.57
2022-10-06T12:41:08.281Z,27.85
2022-10-06T12:43:55.179Z,28.00
2022-10-06T12:46:31.194Z,28.16
2022-10-06T12:49:31.383Z,28.42
2022-10-06T12:52:10.061Z,28.55
2022-10-06T12:55:03.272Z,28.17
2022-10-06T12:57:53.687Z,27.85
2022-10-06T13:00:32.616Z,26.62
2022-10-06T13:03:05.753Z,27.01
2022-10-06T13:05:35.728Z,27.07
2022-10-06T13:08:05.804Z,27.28
2022-10-06T13:10:33.861Z,27.68
2022-10-06T13:13:01.409Z,27.23
2022-10-06T13:15:35.050Z,26.89
2022-10-06T13:18:04.805Z,26.30
2022-10-06T13:20:35.725Z,25.58
2022-10-06T13:23:14.999Z,24.74
2022-10-06T13:25:44.827Z,23.99
2022-10-06T13:28:44.159Z,23.31
2022-10-06T13:31:24.191Z,22.80
2022-10-06T13:34:04.094Z,22.28
2022-10-06T13:36:35.111Z,22.54
2022-10-06T13:39:11.562Z,22.14
2022-10-06T13:42:02.694Z,21.65
2022-10-06T13:44:49.928Z,21.67
2022-10-06T13:47:22.220Z,21.67
2022-10-06T13:50:08.044Z,21.52
2022-10-06T13:52:47.612Z,21.44
2022-10-06T13:55:39.769Z,21.40
2022-10-06T13:58:09.618Z,20.95
2022-10-06T14:01:30.841Z,20.48
2022-10-06T14:04:46.157Z,20.35
2022-10-06T14:07:50.458Z,20.21
2022-10-06T14:10:41.724Z,20.14
2022-10-06T14:13:41.493Z,20.04
2022-10-06T14:16:17.695Z,20.05
2022-10-06T14:18:59.238Z,19.99
2022-10-06T14:21:41.279Z,19.84
2022-10-06T14:24:38.891Z,19.76
2022-10-06T14:27:06.469Z,19.64
2022-10-06T14:29:37.547Z,19.48
2022-10-06T14:32:27.862Z,19.46
2022-10-06T14:35:00.804Z,19.42
2022-10-06T14:37:46.378Z,19.39
2022-10-06T14:40:15.899Z,19.36
2022-10-06T14:42:54.874Z,19.34
2022-10-06T14:45:28.469Z,19.25
2022-10-06T14:47:57.074Z,19.17
2022-10-06T14:51:03.769Z,19.05
2022-10-06T14:54:11.082Z,18.91
2022-10-06T14:56:46.826Z,18.80
2022-10-06T14:59:56.526Z,18.70
2022-10-06T15:03:15.750Z,18.63
2022-10-06T15:06:08.891Z,18.51
2022-10-06T15:09:06.329Z,18.37
2022-10-06T15:11:40.243Z,18.26
2022-10-06T15:14:28.789Z,18.15
2022-10-06T15:17:12.448Z,18.05
2022-10-06T15:19:43.879Z,17.97
2022-10-06T15:22:10.609Z,17.89
2022-10-06T15:25:05.890Z,17.80
2022-10-06T15:28:12.757Z,17.71
2022-10-06T15:31:11.749Z,17.62
2022-10-06T15:34:19.439Z,17.51
2022-10-06T15:37:07.035Z,17.43
2022-10-06T15:39:57.979Z,17.38
2022-10-06T15:42:46.178Z,17.28
2022-10-06T15:45:13.353Z,17.20
2022-10-06T15:47:42.025Z,17.12
2022-10-06T15:50:12.113Z,17.03
2022-10-06T15:52:44.816Z,16.89
2022-10-06T15:55:32.370Z,16.76
2022-10-06T15:57:59.719Z,16.64
2022-10-06T16:00:27.832Z,16.51
2022-10-06T16:03:40.957Z,16.39
2022-10-06T16:06:49.931Z,16.24
2022-10-06T16:09:19.640Z,16.14
2022-10-06T16:12:04.139Z,16.02
2022-10-06T16:14:44.599Z,15.90
2022-10-06T16:17:32.117Z,15.83
2022-10-06T16:20:22.107Z,15.72
2022-10-06T16:22:52.160Z,15.62
2022-10-06T16:25:21.041Z,15.53
2022-10-06T16:27:54.076Z,15.39
2022-10-06T16:30:34.119Z,15.28
2022-10-06T16:33:08.197Z,15.20
2022-10-06T16:36:05.694Z,15.12
2022-10-06T16:38:34.038Z,15.00
2022-10-06T16:41:21.029Z,14.88
2022-10-06T16:43:54.107Z,14.80
2022-10-06T16:47:19.096Z,14.70
2022-10-06T16:50:17.427Z,14.51
2022-10-06T16:52:45.580Z,14.37
2022-10-06T16:55:24.151Z,14.26
2022-10-06T16:58:10.243Z,14.12
2022-10-06T17:00:59.869Z,13.92
2022-10-06T17:04:44.217Z,13.68
2022-10-06T17:07:32.912Z,13.53
2022-10-06T17:11:02.014Z,13.35
2022-10-06T17:13:51.622Z,13.25
2022-10-06T17:16:22.397Z,13.08
2022-10-06T17:19:25.514Z,12.99
2022-10-06T17:21:58.994Z,12.89
2022-10-06T17:24:36.745Z,12.82
2022-10-06T17:27:07.931Z,12.72
2022-10-06T17:29:39.255Z,12.70
2022-10-06T17:32:46.688Z,12.71
2022-10-06T17:35:15.196Z,12.56
2022-10-06T17:38:08.048Z,12.37
2022-10-06T17:40:55.902Z,12.06
2022-10-06T17:43:47.095Z,11.82
2022-10-06T17:46:21.866Z,11.67
2022-10-06T17:49:11.643Z,11.56
2022-10-06T17:51:58.588Z,11.52
2022-10-06T17:55:19.266Z,11.60
2022-10-06T17:58:26.138Z,11.69
2022-10-06T18:01:39.163Z,11.67
2022-10-06T18:04:28.819Z,11.67
2022-10-06T18:07:22.416Z,11.63
2022-10-06T18:10:48.028Z,11.55
2022-10-06T18:13:22.957Z,11.40
2022-10-06T18:16:00.324Z,11.26
2022-10-06T18:19:06.093Z,11.12
2022-10-06T18:21:41.413Z,11.12
2022-10-06T18:24:34.023Z,11.14
2022-10-06T18:27:01.616Z,11.19
2022-10-06T18:30:33.990Z,11.22
2022-10-06T18:36:10.967Z,11.22
2022-10-06T18:36:46.073Z,11.19
2022-10-06T18:39:40.004Z,11.20
2022-10-06T18:42:08.873Z,11.20
2022-10-06T18:45:01.829Z,11.16
2022-10-06T18:48:30.131Z,11.09
2022-10-06T18:51:32.263Z,11.08
2022-10-06T18:54:04.828Z,11.09
2022-10-06T18:57:00.340Z,11.02
2022-10-06T18:59:45.963Z,10.89
2022-10-06T19:02:13.148Z,10.76
2022-10-06T19:05:18.912Z,10.69
2022-10-06T19:07:46.374Z,10.63
2022-10-06T19:10:16.892Z,10.57
2022-10-06T19:13:08.556Z,10.46
2022-10-06T19:15:55.810Z,10.35
2022-10-06T19:18:42.811Z,10.24
2022-10-06T19:21:39.903Z,10.18
2022-10-06T19:24:30.594Z,10.17
2022-10-06T19:27:28.814Z,10.12
2022-10-06T19:30:06.144Z,10.17
2022-10-06T19:32:56.111Z,10.23
2022-10-06T19:35:58.263Z,10.28
2022-10-06T19:38:46.403Z,10.32
2022-10-06T19:41:54.127Z,10.32
2022-10-06T19:44:35.773Z,10.33
2022-10-06T19:47:06.647Z,10.34
2022-10-06T19:49:44.611Z,10.33
2022-10-06T19:52:26.768Z,10.34
2022-10-06T19:55:03.416Z,10.30
2022-10-06T19:58:10.915Z,10.28
2022-10-06T20:01:00.507Z,10.21
2022-10-06T20:03:27.345Z,10.11
2022-10-06T20:06:02.929Z,10.08
2022-10-06T20:08:49.931Z,10.08
2022-10-06T20:11:21.233Z,10.07
2022-10-06T20:13:51.606Z,9.98
2022-10-06T20:16:21.838Z,9.94
2022-10-06T20:19:09.340Z,9.97
2022-10-06T20:21:51.173Z,10.01
2022-10-06T20:24:25.590Z,10.06
2022-10-06T20:27:00.170Z,10.02
2022-10-06T20:29:32.418Z,10.03
2022-10-06T20:32:19.642Z,10.03
2022-10-06T20:34:56.406Z,9.93
2022-10-06T20:37:24.788Z,9.87
2022-10-06T20:40:10.442Z,9.89
2022-10-06T20:42:45.806Z,9.90
2022-10-06T20:45:16.103Z,9.94
2022-10-06T20:48:01.777Z,9.95
2022-10-06T20:50:59.541Z,9.95
2022-10-06T20:53:47.581Z,9.93
2022-10-06T20:56:15.619Z,9.86
2022-10-06T20:58:46.479Z,9.76
2022-10-06T21:01:16.241Z,9.61
2022-10-06T21:04:07.684Z,9.50
2022-10-06T21:06:40.947Z,9.51
2022-10-06T21:09:28.925Z,9.56
2022-10-06T21:11:57.562Z,9.62
2022-10-06T21:14:29.562Z,9.63
2022-10-06T21:17:19.894Z,9.52
2022-10-06T21:20:09.401Z,9.32
2022-10-06T21:23:06.059Z,9.20
2022-10-06T21:25:38.056Z,9.01
2022-10-06T21:28:24.936Z,8.96
2022-10-06T21:31:22.121Z,9.00
2022-10-06T21:33:52.417Z,8.95
2022-10-06T21:36:46.695Z,9.01
2022-10-06T21:39:17.585Z,9.03
2022-10-06T21:42:21.007Z,9.09
2022-10-06T21:44:51.001Z,9.18
2022-10-06T21:47:24.990Z,9.22
2022-10-06T21:50:10.301Z,9.29
2022-10-06T21:53:17.725Z,9.34
2022-10-06T21:56:21.594Z,9.33
2022-10-06T21:59:04.175Z,9.20
